Time;durP1;ratioP1;P1;durP2;ratioP2;P2;SDS_P1;SDS_P2;PMS_P1;PMS_P2;Temp;Humidity;BMP_temperature;BMP_pressure;BME280_temperature;BME280_humidity;BME280_pressure;Samples;Min_cycle;Max_cycle;Signal;HPM_P1;HPM_P2
2022/11/18 00:01:25;;;;;;;5.05;3.13;;;;;;;9.41;100.00;99432.38;2614134;36;20037;-57
2022/11/18 00:03:53;;;;;;;;;;;;;;;9.53;100.00;99438.28;2614715;36;20031;-56
2022/11/18 00:06:23;;;;;;;7.32;2.70;;;;;;;9.59;100.00;99441.13;2614387;31;19951;-57
2022/11/18 00:08:55;;;;;;;9.15;2.72;;;;;;;9.52;100.00;99436.56;2614543;36;20035;-58
2022/11/18 00:14:22;;;;;;;9.68;3.10;;;;;;;9.47;100.00;99453.19;2614742;31;20073;-55
2022/11/18 00:16:54;;;;;;;8.93;2.70;;;;;;;9.49;100.00;99458.41;2614012;36;20035;-55
2022/11/18 00:19:24;;;;;;;7.55;3.13;;;;;;;9.52;100.00;99463.44;2615190;36;20546;-56
2022/11/18 00:21:52;;;;;;;8.40;2.92;;;;;;;9.47;100.00;99470.13;2613688;36;20035;-56
2022/11/18 00:24:24;;;;;;;4.55;2.22;;;;;;;9.46;100.00;99475.66;2614326;36;20030;-56
2022/11/18 00:26:55;;;;;;;6.47;2.78;;;;;;;9.49;100.00;99485.25;2614716;36;20050;-54
2022/11/18 00:29:25;;;;;;;5.22;3.08;;;;;;;9.52;100.00;99479.56;2615014;36;20030;-54
2022/11/18 00:31:53;;;;;;;5.90;2.80;;;;;;;9.44;100.00;99486.56;2614635;36;20061;-57
2022/11/18 00:34:24;;;;;;;6.00;2.55;;;;;;;9.49;100.00;99483.41;2614631;36;20596;-55
2022/11/18 00:36:52;;;;;;;8.98;2.90;;;;;;;9.37;100.00;99485.53;2614159;36;20038;-56
2022/11/18 00:39:24;;;;;;;5.90;2.60;;;;;;;9.35;100.00;99484.00;2614902;36;20073;-56
2022/11/18 00:44:36;;;;;;;6.65;2.35;;;;;;;9.42;100.00;99496.66;2614712;36;20554;-58
2022/11/18 00:47:05;;;;;;;9.35;2.90;;;;;;;9.37;100.00;99490.91;2613545;31;20034;-53
2022/11/18 00:49:35;;;;;;;6.55;2.78;;;;;;;9.39;100.00;99493.44;2614460;36;20053;-57
2022/11/18 00:52:04;;;;;;;6.80;2.90;;;;;;;9.35;100.00;99495.63;2613077;36;20035;-55
2022/11/18 00:54:35;;;;;;;5.38;2.55;;;;;;;9.35;100.00;99492.06;2614224;36;20034;-55
2022/11/18 00:57:04;;;;;;;5.28;2.88;;;;;;;9.24;100.00;99501.25;2613778;36;20037;-55
2022/11/18 00:59:32;;;;;;;5.07;2.47;;;;;;;9.16;100.00;99493.16;2614724;36;20575;-54
2022/11/18 01:02:00;;;;;;;11.63;3.13;;;;;;;9.23;100.00;99496.88;2613069;31;20038;-54
2022/11/18 01:04:29;;;;;;;6.65;2.97;;;;;;;9.17;100.00;99497.53;2614000;36;20038;-55
2022/11/18 01:06:58;;;;;;;4.28;2.78;;;;;;;9.17;100.00;99498.41;2613702;36;20038;-56
2022/11/18 01:09:26;;;;;;;4.38;2.55;;;;;;;9.22;100.00;99509.47;2614447;36;20031;-55
2022/11/18 01:14:38;;;;;;;5.20;2.92;;;;;;;9.21;100.00;99515.00;2614098;36;20081;-57
2022/11/18 01:17:06;;;;;;;10.73;3.08;;;;;;;9.22;100.00;99522.06;2613998;36;20038;-53
2022/11/18 01:19:34;;;;;;;5.25;3.00;;;;;;;9.26;100.00;99518.03;2631578;36;20034;-57
2022/11/18 01:22:03;;;;;;;6.90;2.80;;;;;;;9.27;100.00;99531.28;2613771;31;20085;-54
2022/11/18 01:24:31;;;;;;;7.13;2.90;;;;;;;9.31;100.00;99521.09;2614403;36;20153;-56
2022/11/18 01:27:03;;;;;;;10.27;3.03;;;;;;;9.21;100.00;99534.63;2613862;36;20034;-57
2022/11/18 01:29:32;;;;;;;9.02;3.08;;;;;;;9.25;100.00;99532.50;2614729;36;20330;-53
2022/11/18 01:32:00;;;;;;;10.53;3.27;;;;;;;9.25;100.00;99544.06;2612096;36;20042;-54
2022/11/18 01:34:29;;;;;;;5.85;3.03;;;;;;;9.42;100.00;99549.50;2614751;31;20034;-57
2022/11/18 01:36:58;;;;;;;7.30;2.97;;;;;;;9.36;100.00;99550.97;2613460;36;20427;-54
2022/11/18 01:39:30;;;;;;;7.88;2.83;;;;;;;9.24;100.00;99552.28;2614797;36;20031;-54
2022/11/18 01:41:58;;;;;;;4.85;2.80;;;;;;;9.33;100.00;99554.00;2614828;36;20416;-56
2022/11/18 01:45:10;;;;;;;8.63;3.03;;;;;;;9.37;100.00;99549.97;2614929;36;20491;-57
2022/11/18 01:47:46;;;;;;;8.68;2.60;;;;;;;9.30;100.00;99554.31;2614274;36;20053;-60
2022/11/18 01:50:17;;;;;;;5.35;2.72;;;;;;;9.31;100.00;99558.69;2613814;31;20409;-57
2022/11/18 01:52:45;;;;;;;5.43;2.85;;;;;;;9.24;100.00;99558.47;2613993;31;20046;-57
2022/11/18 01:55:18;;;;;;;6.65;2.92;;;;;;;9.33;100.00;99562.03;2614140;36;20026;-56
2022/11/18 01:57:51;;;;;;;8.73;3.72;;;;;;;9.24;100.00;99561.16;2615039;36;20030;-56
2022/11/18 02:00:19;;;;;;;6.10;2.45;;;;;;;9.30;100.00;99557.00;2614431;36;20041;-56
2022/11/18 02:02:51;;;;;;;6.65;3.20;;;;;;;9.14;100.00;99562.28;2614343;36;20034;-57
2022/11/18 02:05:20;;;;;;;7.25;3.35;;;;;;;9.23;100.00;99564.88;2612927;36;20034;-51
2022/11/18 02:07:48;;;;;;;8.63;2.70;;;;;;;9.10;100.00;99567.97;2614680;36;20042;-54
2022/11/18 02:10:23;;;;;;;8.70;3.60;;;;;;;9.07;100.00;99576.34;2614081;31;20035;-55
2022/11/18 02:12:56;;;;;;;5.75;3.35;;;;;;;9.10;100.00;99580.56;2614431;36;20038;-54
2022/11/18 02:15:35;;;;;;;6.45;2.85;;;;;;;9.08;100.00;99586.09;2615022;36;20034;-55
2022/11/18 02:18:16;;;;;;;6.20;2.95;;;;;;;9.17;100.00;99583.44;2615026;36;20431;-53
2022/11/18 02:20:50;;;;;;;7.20;2.90;;;;;;;9.26;100.00;99577.09;2614580;36;20046;-56
2022/11/18 02:23:48;;;;;;;4.88;2.95;;;;;;;9.08;100.00;99578.03;2613340;36;20041;-56
2022/11/18 02:26:49;;;;;;;7.93;3.28;;;;;;;9.03;100.00;99584.88;2614780;36;20032;-55
2022/11/18 02:29:26;;;;;;;9.40;4.05;;;;;;;9.09;100.00;99582.38;2614949;36;20030;-60
2022/11/18 02:31:59;;;;;;;10.73;3.50;;;;;;;9.08;100.00;99580.72;2615251;36;20035;-56
2022/11/18 02:34:39;;;;;;;8.93;3.13;;;;;;;9.12;100.00;99582.06;2615069;36;20141;-56
2022/11/18 02:37:17;;;;;;;9.30;2.80;;;;;;;9.15;100.00;99585.44;2614598;36;20065;-59
2022/11/18 02:39:50;;;;;;;6.10;3.53;;;;;;;9.03;100.00;99593.75;2615624;36;20030;-56
2022/11/18 02:42:19;;;;;;;7.07;2.75;;;;;;;9.06;100.00;99593.44;2615853;31;20859;-55
2022/11/18 02:44:54;;;;;;;6.97;2.97;;;;;;;8.89;100.00;99605.91;2615274;36;20030;-56
2022/11/18 02:47:24;;;;;;;5.72;2.90;;;;;;;8.98;100.00;99600.59;2615502;36;20030;-54
2022/11/18 02:49:56;;;;;;;7.38;2.97;;;;;;;9.02;100.00;99601.97;2613430;36;20329;-55
2022/11/18 02:52:27;;;;;;;7.40;3.10;;;;;;;8.88;100.00;99606.91;2615120;36;20428;-54
2022/11/18 02:54:57;;;;;;;7.53;2.85;;;;;;;8.88;100.00;99606.91;2614878;36;20038;-55
2022/11/18 02:57:28;;;;;;;6.53;2.75;;;;;;;8.87;100.00;99609.75;2614763;36;20034;-57
2022/11/18 02:59:59;;;;;;;9.85;3.35;;;;;;;8.84;100.00;99608.19;2614444;36;20034;-56
2022/11/18 03:02:28;;;;;;;5.85;3.17;;;;;;;8.86;100.00;99613.41;2614517;36;20038;-56
2022/11/18 03:05:00;;;;;;;6.97;3.40;;;;;;;8.84;100.00;99615.41;2615167;36;20086;-56
2022/11/18 03:07:32;;;;;;;6.85;3.40;;;;;;;8.73;100.00;99617.34;2614619;36;20034;-54
2022/11/18 03:10:02;;;;;;;6.32;3.08;;;;;;;8.76;100.00;99611.66;2614292;36;20154;-51
2022/11/18 03:12:37;;;;;;;8.68;3.38;;;;;;;8.79;100.00;99621.25;2614515;36;20057;-57
2022/11/18 03:15:18;;;;;;;7.20;3.42;;;;;;;8.75;100.00;99620.72;2614908;36;20551;-55
2022/11/18 03:18:02;;;;;;;6.18;3.33;;;;;;;8.82;100.00;99623.63;2614182;36;20034;-54
2022/11/18 03:20:34;;;;;;;8.65;3.17;;;;;;;8.80;100.00;99632.81;2615135;36;20035;-53
2022/11/18 03:23:09;;;;;;;10.05;3.50;;;;;;;8.63;100.00;99621.97;2615249;36;20027;-57
2022/11/18 03:25:44;;;;;;;10.48;4.05;;;;;;;8.73;100.00;99628.09;2614578;36;20427;-56
2022/11/18 03:28:19;;;;;;;7.90;3.47;;;;;;;8.73;100.00;99630.75;2633577;36;20435;-56
2022/11/18 03:31:00;;;;;;;7.05;2.95;;;;;;;8.87;100.00;99633.88;2614261;36;20031;-54
2022/11/18 03:33:36;;;;;;;8.50;3.50;;;;;;;8.93;100.00;99636.78;2614999;31;20069;-55
2022/11/18 03:36:08;;;;;;;8.85;3.88;;;;;;;8.92;100.00;99640.47;2616633;36;20106;-57
2022/11/18 03:38:41;;;;;;;10.07;3.88;;;;;;;8.88;100.00;99647.16;2616132;36;20027;-54
2022/11/18 03:41:13;;;;;;;8.02;3.60;;;;;;;8.64;100.00;99650.44;2615834;36;20026;-60
2022/11/18 03:43:48;;;;;;;9.93;3.97;;;;;;;8.73;100.00;99656.72;2616013;36;20041;-55
2022/11/18 03:46:24;;;;;;;5.53;3.47;;;;;;;8.88;100.00;99657.06;2616172;36;20524;-53
2022/11/18 03:48:55;;;;;;;7.63;3.63;;;;;;;8.75;100.00;99665.47;2616427;36;20031;-55
2022/11/18 03:51:27;;;;;;;7.70;3.90;;;;;;;8.79;100.00;99661.50;2616033;36;20034;-56
2022/11/18 03:54:04;;;;;;;7.82;3.25;;;;;;;8.87;100.00;99664.25;2615862;36;20594;-54
2022/11/18 03:56:38;;;;;;;8.75;4.15;;;;;;;8.98;100.00;99670.38;2615443;36;20046;-56
2022/11/18 03:59:12;;;;;;;9.15;4.32;;;;;;;9.08;100.00;99688.09;2615116;36;20034;-58
2022/11/18 04:01:48;;;;;;;10.65;3.85;;;;;;;8.92;100.00;99675.38;2616260;36;20026;-56
2022/11/18 04:04:21;;;;;;;7.07;3.50;;;;;;;8.97;100.00;99682.94;2616722;36;20495;-51
2022/11/18 04:06:52;;;;;;;10.25;3.58;;;;;;;8.93;100.00;99686.94;2615917;36;20027;-60
2022/11/18 04:09:25;;;;;;;5.95;3.47;;;;;;;9.01;100.00;99686.16;2615824;31;20520;-55
2022/11/18 04:12:05;;;;;;;7.45;3.95;;;;;;;9.15;100.00;99690.13;2615389;36;20038;-56
2022/11/18 04:14:36;;;;;;;9.57;3.40;;;;;;;9.25;100.00;99693.56;2616611;36;20578;-52
2022/11/18 04:17:12;;;;;;;6.35;3.53;;;;;;;9.15;100.00;99690.13;2615800;36;20548;-56
2022/11/18 04:19:41;;;;;;;8.07;3.47;;;;;;;9.19;100.00;99700.41;2615931;36;20043;-54
2022/11/18 04:22:10;;;;;;;8.88;4.32;;;;;;;9.23;100.00;99699.09;2617176;31;20034;-54
2022/11/18 04:24:39;;;;;;;;;;;;;;;9.37;100.00;99704.91;2617472;31;20034;-57
2022/11/18 04:27:08;;;;;;;6.07;3.60;;;;;;;9.21;100.00;99708.31;2616513;36;19946;-56
2022/11/18 04:29:36;;;;;;;9.02;3.47;;;;;;;9.05;100.00;99709.84;2616643;36;20035;-56
2022/11/18 04:32:06;;;;;;;10.38;3.45;;;;;;;9.16;100.00;99715.97;2616078;36;20041;-53
2022/11/18 04:34:37;;;;;;;7.13;3.50;;;;;;;9.28;100.00;99715.56;2616057;36;20023;-56
2022/11/18 04:37:07;;;;;;;6.85;3.75;;;;;;;9.26;100.00;99722.09;2616320;36;20432;-56
2022/11/18 04:39:35;;;;;;;8.63;3.85;;;;;;;9.32;100.00;99721.50;2615523;36;20023;-54
2022/11/18 04:42:03;;;;;;;8.50;3.33;;;;;;;9.15;100.00;99719.66;2616311;31;20042;-55
2022/11/18 04:44:33;;;;;;;9.95;3.50;;;;;;;9.25;100.00;99728.47;2616688;36;20025;-55
2022/11/18 04:47:04;;;;;;;12.10;3.70;;;;;;;9.22;100.00;99731.47;2616299;36;20030;-55
2022/11/18 04:49:32;;;;;;;7.75;4.25;;;;;;;9.43;100.00;99729.28;2615226;36;20029;-52
2022/11/18 04:52:05;;;;;;;12.88;4.00;;;;;;;9.41;100.00;99742.03;2615606;36;20034;-55
2022/11/18 04:54:34;;;;;;;9.75;3.70;;;;;;;9.40;100.00;99737.66;2615168;36;20031;-52
2022/11/18 04:57:02;;;;;;;8.03;3.23;;;;;;;9.38;100.00;99741.47;2615617;36;20531;-56
2022/11/18 04:59:31;;;;;;;9.13;3.83;;;;;;;9.29;100.00;99733.38;2615824;36;20037;-55
2022/11/18 05:02:00;;;;;;;7.07;3.67;;;;;;;9.25;100.00;99740.03;2615442;36;20042;-52
2022/11/18 05:04:31;;;;;;;6.82;3.40;;;;;;;9.28;100.00;99746.97;2615652;36;20122;-55
2022/11/18 05:07:01;;;;;;;8.55;3.92;;;;;;;9.34;100.00;99745.50;2616467;36;20444;-54
2022/11/18 05:09:32;;;;;;;11.82;3.67;;;;;;;9.26;100.00;99751.63;2615739;36;20026;-55
2022/11/18 05:14:42;;;;;;;6.55;3.28;;;;;;;9.34;100.00;99754.38;2615492;31;20023;-54
2022/11/18 05:17:11;;;;;;;8.47;4.00;;;;;;;9.26;100.00;99754.31;2615704;31;20153;-56
2022/11/18 05:19:40;;;;;;;6.85;3.50;;;;;;;9.26;100.00;99754.31;2614777;36;20041;-56
2022/11/18 05:22:09;;;;;;;;;;;;;;;9.33;100.00;99760.75;2616162;36;20052;-56
2022/11/18 05:24:40;;;;;;;9.90;3.70;;;;;;;9.17;100.00;99764.16;2615919;36;20502;-56
2022/11/18 05:27:08;;;;;;;5.65;3.40;;;;;;;9.22;100.00;99774.44;2614040;36;20061;-53
2022/11/18 05:29:36;;;;;;;9.65;3.90;;;;;;;9.17;100.00;99772.22;2613263;36;20042;-56
2022/11/18 05:32:05;;;;;;;5.95;3.67;;;;;;;9.17;100.00;99774.03;2613600;36;20519;-56
2022/11/18 05:34:33;;;;;;;7.65;4.22;;;;;;;9.10;100.00;99781.88;2615687;36;20034;-57
2022/11/18 05:37:02;;;;;;;10.38;3.65;;;;;;;9.16;100.00;99783.06;2615624;36;20049;-57
2022/11/18 05:39:30;;;;;;;5.75;3.17;;;;;;;9.02;100.00;99793.34;2616139;31;20023;-55
2022/11/18 05:44:42;;;;;;;8.88;4.18;;;;;;;9.15;100.00;99797.53;2614744;36;20559;-52
2022/11/18 05:47:10;;;;;;;5.47;3.60;;;;;;;9.12;100.00;99795.97;2614635;36;20416;-57
2022/11/18 05:49:38;;;;;;;7.87;3.30;;;;;;;9.08;100.00;99798.13;2614451;36;20039;-56
2022/11/18 05:52:07;;;;;;;5.72;3.50;;;;;;;9.06;100.00;99800.09;2615659;36;20057;-54
2022/11/18 05:54:35;;;;;;;7.47;3.55;;;;;;;9.10;100.00;99804.19;2615570;36;20034;-59
2022/11/18 05:57:06;;;;;;;12.98;3.95;;;;;;;9.02;100.00;99806.78;2615067;36;20164;-54
2022/11/18 05:59:34;;;;;;;11.43;3.83;;;;;;;9.03;100.00;99813.84;2616678;31;20034;-56
2022/11/18 06:02:06;;;;;;;11.40;4.30;;;;;;;9.00;100.00;99814.16;2616133;31;20042;-56
2022/11/18 06:04:44;;;;;;;6.28;3.95;;;;;;;8.97;100.00;99819.81;2615678;36;20023;-57
2022/11/18 06:07:19;;;;;;;7.43;3.83;;;;;;;8.99;100.00;99815.13;2614468;36;20575;-55
2022/11/18 06:09:51;;;;;;;7.65;4.32;;;;;;;8.94;100.00;99822.81;2613587;36;20038;-57
2022/11/18 06:12:25;;;;;;;9.40;4.03;;;;;;;9.16;100.00;99817.97;2615852;31;20041;-59
2022/11/18 06:14:59;;;;;;;8.73;3.75;;;;;;;9.02;100.00;99820.19;2614659;36;20035;-53
2022/11/18 06:17:32;;;;;;;11.32;3.90;;;;;;;9.07;100.00;99825.97;2616258;36;20118;-56
2022/11/18 06:20:01;;;;;;;7.15;4.20;;;;;;;9.06;100.00;99828.81;2616121;36;20042;-57
2022/11/18 06:22:30;;;;;;;11.00;3.92;;;;;;;9.11;100.00;99832.72;2616283;36;20034;-56
2022/11/18 06:24:58;;;;;;;9.27;4.80;;;;;;;9.03;100.00;99832.63;2616546;36;20034;-56
2022/11/18 06:27:31;;;;;;;7.15;3.53;;;;;;;8.98;100.00;99837.63;2615593;36;20037;-53
2022/11/18 06:29:59;;;;;;;8.45;3.88;;;;;;;8.98;100.00;99839.44;2616483;36;20050;-52
2022/11/18 06:32:27;;;;;;;13.38;4.43;;;;;;;9.04;100.00;99837.00;2614670;36;20041;-56
2022/11/18 06:34:56;;;;;;;8.20;4.20;;;;;;;8.94;100.00;99844.28;2615424;31;20022;-57
2022/11/18 06:37:24;;;;;;;7.55;3.58;;;;;;;8.94;100.00;99847.78;2615855;36;20033;-55
2022/11/18 06:39:53;;;;;;;7.93;3.63;;;;;;;8.89;100.00;99850.09;2616194;36;20022;-54
2022/11/18 06:45:04;;;;;;;9.68;4.13;;;;;;;8.83;100.00;99860.56;2616869;36;20038;-57
2022/11/18 06:47:30;;;;;;;7.70;4.55;;;;;;;8.75;100.00;99864.00;2615865;36;20041;-56
2022/11/18 06:49:59;;;;;;;9.52;4.20;;;;;;;8.79;100.00;99875.28;2614074;36;21407;-56
2022/11/18 06:52:27;;;;;;;7.68;4.63;;;;;;;8.69;100.00;99875.34;2614190;36;20054;-56
2022/11/18 06:54:55;;;;;;;10.60;4.78;;;;;;;8.67;100.00;99878.16;2615853;31;20034;-54
2022/11/18 06:57:23;;;;;;;7.53;4.32;;;;;;;8.77;100.00;99887.03;2614636;36;20026;-55
2022/11/18 06:59:52;;;;;;;11.45;5.05;;;;;;;8.79;100.00;99892.22;2614304;31;20034;-55
2022/11/18 07:02:23;;;;;;;8.48;4.55;;;;;;;8.94;100.00;99893.41;2611474;31;20034;-56
2022/11/18 07:04:51;;;;;;;13.35;5.35;;;;;;;8.78;100.00;99895.91;2602641;36;20045;-55
2022/11/18 07:07:19;;;;;;;13.02;4.65;;;;;;;8.81;100.00;99900.13;2614590;36;20034;-57
2022/11/18 07:09:47;;;;;;;10.60;4.90;;;;;;;9.02;100.00;99911.44;2611110;36;20042;-57
2022/11/18 07:12:16;;;;;;;9.32;5.03;;;;;;;8.80;100.00;99911.84;2612852;36;20054;-56
2022/11/18 07:14:44;;;;;;;10.77;4.55;;;;;;;8.76;100.00;99916.69;2613182;36;20046;-57
2022/11/18 07:17:12;;;;;;;8.05;4.78;;;;;;;8.74;100.00;99919.47;2612674;36;20041;-54
2022/11/18 07:19:43;;;;;;;8.90;4.93;;;;;;;8.79;100.00;99923.56;2611654;36;20042;-58
2022/11/18 07:22:12;;;;;;;8.30;4.65;;;;;;;8.86;100.00;99919.31;2612542;36;20069;-56
2022/11/18 07:24:40;;;;;;;10.77;5.18;;;;;;;8.71;100.00;99925.16;2613391;36;20022;-54
2022/11/18 07:27:08;;;;;;;12.88;4.82;;;;;;;8.91;100.00;99933.97;2613389;36;20042;-55
2022/11/18 07:29:36;;;;;;;9.18;4.90;;;;;;;8.92;100.00;99935.66;2614994;36;20026;-56
2022/11/18 07:32:05;;;;;;;10.05;5.80;;;;;;;8.91;100.00;99942.03;2613333;36;20069;-51
2022/11/18 07:34:33;;;;;;;9.25;5.10;;;;;;;8.95;100.00;99950.59;2612598;36;20023;-52
2022/11/18 07:37:04;;;;;;;9.95;4.55;;;;;;;8.96;100.00;99948.78;2612889;36;20057;-56
2022/11/18 07:39:32;;;;;;;10.98;5.20;;;;;;;8.88;100.00;99950.38;2614441;36;20045;-56
2022/11/18 07:42:00;;;;;;;8.90;4.82;;;;;;;8.86;100.00;99952.38;2616076;36;20030;-53
2022/11/18 07:44:32;;;;;;;9.60;5.13;;;;;;;8.88;100.00;99957.59;2616127;36;20026;-56
2022/11/18 07:47:00;;;;;;;10.90;5.32;;;;;;;8.97;100.00;99963.91;2616363;31;20034;-58
2022/11/18 07:49:28;;;;;;;8.95;5.43;;;;;;;9.00;100.00;99964.44;2616081;36;20030;-53
2022/11/18 07:51:57;;;;;;;13.13;5.85;;;;;;;9.00;100.00;99972.50;2615163;36;20035;-57
2022/11/18 07:54:28;;;;;;;9.40;5.13;;;;;;;9.02;100.00;99972.34;2613442;36;20030;-54
2022/11/18 07:56:56;;;;;;;11.48;6.10;;;;;;;9.08;100.00;99972.63;2615331;36;20531;-56
2022/11/18 07:59:24;;;;;;;14.40;5.47;;;;;;;9.18;100.00;99977.09;2616126;36;20045;-57
2022/11/18 08:01:52;;;;;;;12.18;5.13;;;;;;;9.17;100.00;99987.00;2615615;36;20027;-57
2022/11/18 08:04:21;;;;;;;8.88;4.70;;;;;;;9.24;100.00;99980.00;2608207;36;20451;-55
2022/11/18 08:06:49;;;;;;;11.93;5.50;;;;;;;9.27;100.00;99993.13;2614997;36;20034;-56
2022/11/18 08:09:17;;;;;;;12.82;4.85;;;;;;;9.18;100.00;99995.88;2614758;36;20030;-54
2022/11/18 08:11:48;;;;;;;9.57;5.20;;;;;;;9.34;100.00;99993.38;2615077;36;20593;-57
2022/11/18 08:14:16;;;;;;;10.32;5.68;;;;;;;9.25;100.00;99999.66;2609464;31;20061;-57
2022/11/18 08:16:45;;;;;;;9.45;4.82;;;;;;;9.37;100.00;100003.81;2616205;36;20604;-56
2022/11/18 08:19:13;;;;;;;9.07;4.88;;;;;;;9.24;100.00;100014.06;2615893;36;20023;-57
2022/11/18 08:21:41;;;;;;;12.07;6.25;;;;;;;9.41;100.00;100012.44;2617138;31;20026;-53
2022/11/18 08:24:11;;;;;;;8.82;4.90;;;;;;;9.45;100.00;100017.38;2616869;36;20057;-60
2022/11/18 08:26:39;;;;;;;12.80;4.43;;;;;;;9.58;100.00;100016.16;2615549;36;20582;-56
2022/11/18 08:29:10;;;;;;;9.13;4.75;;;;;;;9.59;100.00;100020.53;2612756;36;20035;-57
2022/11/18 08:31:39;;;;;;;10.55;5.05;;;;;;;9.59;100.00;100012.47;2613206;31;20031;-56
2022/11/18 08:34:09;;;;;;;11.55;4.57;;;;;;;9.61;100.00;100019.41;2612056;36;20046;-58
2022/11/18 08:36:39;;;;;;;9.00;4.75;;;;;;;9.75;100.00;100023.41;2612353;36;20034;-54
2022/11/18 08:39:09;;;;;;;9.43;5.53;;;;;;;9.87;100.00;100015.13;2612846;36;20081;-60
2022/11/18 08:41:40;;;;;;;9.38;5.05;;;;;;;9.90;100.00;100017.50;2612271;36;20043;-56
2022/11/18 08:44:14;;;;;;;6.95;4.70;;;;;;;9.89;100.00;100018.50;2612720;36;20030;-55
2022/11/18 08:46:44;;;;;;;11.25;5.03;;;;;;;9.87;100.00;100023.19;2614178;31;20030;-50
2022/11/18 08:49:12;;;;;;;12.50;4.80;;;;;;;9.89;100.00;100031.94;2613513;36;20034;-57
2022/11/18 08:51:40;;;;;;;10.88;4.38;;;;;;;10.00;100.00;100031.72;2613858;31;20543;-57
2022/11/18 08:54:09;;;;;;;10.00;4.28;;;;;;;9.96;100.00;100036.56;2612506;36;20030;-57
2022/11/18 08:56:38;;;;;;;13.18;5.65;;;;;;;10.12;100.00;100040.41;2612512;36;20035;-58
2022/11/18 08:59:06;;;;;;;7.05;4.10;;;;;;;10.11;100.00;100044.09;2615187;36;20033;-57
2022/11/18 09:01:37;;;;;;;13.30;4.55;;;;;;;10.03;100.00;100046.72;2631293;36;20042;-60
2022/11/18 09:04:06;;;;;;;9.63;3.80;;;;;;;9.92;100.00;100058.50;2612087;36;20443;-56
2022/11/18 09:06:37;;;;;;;11.43;3.90;;;;;;;10.06;100.00;100058.00;2615375;36;20034;-57
2022/11/18 09:09:05;;;;;;;10.48;4.18;;;;;;;10.16;100.00;100058.78;2613817;36;20057;-57
2022/11/18 09:11:34;;;;;;;8.60;4.10;;;;;;;10.32;100.00;100062.59;2613021;31;20552;-56
2022/11/18 09:14:03;;;;;;;10.18;4.43;;;;;;;10.48;100.00;100062.81;2605784;36;20455;-55
2022/11/18 09:16:33;;;;;;;8.02;4.65;;;;;;;10.44;100.00;100064.09;2612366;36;20038;-56
2022/11/18 09:19:04;;;;;;;9.27;4.50;;;;;;;10.41;100.00;100066.25;2613287;36;20034;-57
2022/11/18 09:21:32;;;;;;;9.32;4.55;;;;;;;10.56;100.00;100058.50;2615213;36;20436;-56
2022/11/18 09:24:00;;;;;;;8.95;4.75;;;;;;;10.33;100.00;100064.28;2609749;36;20038;-54
2022/11/18 09:26:29;;;;;;;10.85;4.85;;;;;;;10.35;100.00;100073.13;2616360;36;20038;-57
2022/11/18 09:28:57;;;;;;;7.50;4.28;;;;;;;10.51;100.00;100072.38;2614693;36;20038;-53
2022/11/18 09:31:26;;;;;;;5.55;3.70;;;;;;;10.57;100.00;100071.78;2612952;36;20023;-55
2022/11/18 09:33:55;;;;;;;8.30;4.72;;;;;;;10.58;100.00;100081.53;2613151;31;20034;-56
2022/11/18 09:36:26;;;;;;;7.97;4.28;;;;;;;10.77;100.00;100080.50;2615057;36;20042;-57
2022/11/18 09:38:55;;;;;;;6.78;4.00;;;;;;;10.80;100.00;100082.88;2616375;36;20034;-55
2022/11/18 09:41:41;;;;;;;8.40;4.88;;;;;;;11.04;100.00;100084.91;2613967;36;20502;-57
2022/11/18 09:44:23;;;;;;;12.35;4.45;;;;;;;11.27;100.00;100084.38;2613514;36;20412;-56
2022/11/18 09:47:04;;;;;;;9.77;4.68;;;;;;;11.17;100.00;100094.41;2613391;36;20665;-53
2022/11/18 09:49:36;;;;;;;7.82;4.40;;;;;;;11.39;100.00;100093.88;2614378;31;20045;-56
2022/11/18 09:52:14;;;;;;;8.10;4.35;;;;;;;11.47;100.00;100101.16;2612712;36;20117;-56
2022/11/18 09:54:43;;;;;;;5.80;3.90;;;;;;;11.48;100.00;100097.44;2613820;36;20034;-54
2022/11/18 09:57:15;;;;;;;8.15;3.78;;;;;;;11.43;100.00;100101.66;2614557;36;20531;-56
2022/11/18 09:59:44;;;;;;;11.13;4.47;;;;;;;11.68;100.00;100106.13;2616500;36;20034;-56
2022/11/18 10:02:30;;;;;;;7.53;4.72;;;;;;;11.58;100.00;100113.50;2616013;36;20030;-57
2022/11/18 10:05:04;;;;;;;9.60;3.70;;;;;;;11.50;100.00;100108.09;2616928;31;20458;-56
2022/11/18 10:07:43;;;;;;;6.35;3.60;;;;;;;11.61;100.00;100106.94;2616504;31;20038;-55
2022/11/18 10:10:16;;;;;;;7.43;4.03;;;;;;;11.87;100.00;100102.34;2617142;31;20550;-56
2022/11/18 10:12:51;;;;;;;6.25;3.30;;;;;;;11.62;100.00;100109.47;2617364;36;20491;-51
2022/11/18 10:15:28;;;;;;;11.35;4.15;;;;;;;11.37;100.00;100117.44;2616088;36;20026;-55
2022/11/18 10:18:05;;;;;;;6.78;3.90;;;;;;;11.35;100.00;100118.59;2615675;36;20031;-56
2022/11/18 10:20:49;;;;;;;8.25;4.07;;;;;;;11.21;100.00;100118.16;2615336;36;20042;-54
2022/11/18 10:23:24;;;;;;;8.43;3.78;;;;;;;11.24;100.00;100126.97;2609384;36;20581;-53
2022/11/18 10:25:54;;;;;;;9.70;4.38;;;;;;;11.67;100.00;100109.81;2616790;31;20424;-53
2022/11/18 10:28:28;;;;;;;5.97;4.03;;;;;;;11.56;100.00;100110.97;2608983;36;20093;-55
2022/11/18 10:31:04;;;;;;;7.57;4.00;;;;;;;11.78;100.00;100119.50;2613140;36;20027;-53
2022/11/18 10:33:32;;;;;;;10.32;4.97;;;;;;;11.91;100.00;100127.09;2614230;36;20038;-55
2022/11/18 10:36:27;;;;;;;9.80;3.97;;;;;;;11.88;100.00;100122.91;2613605;36;20038;-56
2022/11/18 10:39:13;;;;;;;11.15;3.78;;;;;;;11.85;100.00;100125.94;2614195;36;20450;-56
2022/11/18 10:41:47;;;;;;;5.72;3.33;;;;;;;11.78;100.00;100122.19;2615204;36;20026;-53
2022/11/18 10:44:32;;;;;;;10.93;4.07;;;;;;;11.90;100.00;100126.28;2616197;36;20038;-56
2022/11/18 10:47:23;;;;;;;8.30;4.18;;;;;;;11.70;100.00;100122.16;2615460;36;20050;-56
2022/11/18 10:49:52;;;;;;;7.15;3.78;;;;;;;11.67;100.00;100139.47;2615711;36;20030;-55
2022/11/18 10:52:20;;;;;;;7.80;3.83;;;;;;;11.63;100.00;100130.06;2614393;36;20606;-53
2022/11/18 10:55:08;;;;;;;10.00;3.67;;;;;;;11.51;100.00;100137.56;2617248;31;20559;-57
2022/11/18 10:57:38;;;;;;;7.07;3.50;;;;;;;11.73;100.00;100135.28;2614598;31;20034;-58
2022/11/18 11:00:08;;;;;;;7.20;3.88;;;;;;;11.74;100.00;100128.91;2612585;36;20035;-56
2022/11/18 11:02:41;;;;;;;7.40;3.92;;;;;;;11.83;100.00;100132.50;2613399;36;20061;-57
2022/11/18 11:05:20;;;;;;;9.32;4.55;;;;;;;11.72;100.00;100136.31;2613025;36;20408;-56
2022/11/18 11:08:03;;;;;;;14.45;4.38;;;;;;;11.74;100.00;100137.00;2613361;36;20742;-56
2022/11/18 11:10:34;;;;;;;12.20;4.80;;;;;;;11.60;100.00;100146.53;2612683;36;20045;-57
2022/11/18 11:13:14;;;;;;;8.48;4.38;;;;;;;11.88;100.00;100140.91;2613666;36;20432;-54
2022/11/18 11:15:45;;;;;;;8.60;3.92;;;;;;;12.07;100.00;100154.19;2615050;36;20019;-58
2022/11/18 11:20:59;;;;;;;6.88;3.55;;;;;;;11.89;100.00;100148.84;2613147;36;20038;-55
2022/11/18 11:23:28;;;;;;;8.48;4.20;;;;;;;11.84;100.00;100153.88;2616877;36;20034;-53
2022/11/18 11:26:04;;;;;;;6.82;4.18;;;;;;;12.14;100.00;100159.75;2615164;36;20026;-56
2022/11/18 11:28:41;;;;;;;5.05;3.70;;;;;;;12.11;100.00;100156.56;2615824;36;20122;-58
2022/11/18 11:31:20;;;;;;;8.68;4.03;;;;;;;12.38;100.00;100160.84;2611267;36;20057;-55
2022/11/18 11:34:00;;;;;;;8.48;4.18;;;;;;;12.43;100.00;100161.19;2605307;36;20602;-60
2022/11/18 11:36:43;;;;;;;5.55;3.20;;;;;;;12.29;100.00;100156.44;2612857;36;20038;-58
2022/11/18 11:39:48;;;;;;;8.55;3.53;;;;;;;12.35;100.00;100161.16;2614341;36;20041;-57
2022/11/18 11:42:33;;;;;;;7.50;3.75;;;;;;;12.49;100.00;100171.34;2611615;31;20544;-54
2022/11/18 11:45:25;;;;;;;9.80;4.18;;;;;;;12.47;100.00;100167.97;2612301;31;20034;-58
2022/11/18 11:48:17;;;;;;;5.78;3.10;;;;;;;12.43;100.00;100177.41;2612267;36;20034;-55
2022/11/18 11:50:57;;;;;;;8.30;3.85;;;;;;;12.62;100.00;100177.09;2612590;36;20041;-58
2022/11/18 11:53:48;;;;;;;10.57;3.70;;;;;;;12.51;100.00;100173.88;2614645;36;20086;-57
2022/11/18 11:56:23;;;;;;;7.50;3.20;;;;;;;12.45;100.00;100172.66;2611520;36;20173;-54
2022/11/18 11:59:08;;;;;;;10.00;3.47;;;;;;;12.49;100.00;100174.03;2612200;36;20061;-53
2022/11/18 12:01:46;;;;;;;9.13;4.38;;;;;;;12.49;100.00;100176.72;2613962;36;20081;-60
2022/11/18 12:04:30;;;;;;;7.10;3.70;;;;;;;12.59;100.00;100174.72;2614671;36;20034;-56
2022/11/18 12:07:01;;;;;;;5.57;3.40;;;;;;;12.45;100.00;100180.75;2614535;36;20026;-53
2022/11/18 12:09:45;;;;;;;9.70;3.92;;;;;;;12.48;100.00;100179.59;2614512;31;20034;-55